createdAt,value
2022-12-16T00:01:35.736Z,100.00
2022-12-16T00:06:39.427Z,100.00
2022-12-16T00:11:44.218Z,100.00
2022-12-16T00:16:47.720Z,100.00
2022-12-16T00:21:51.230Z,100.00
2022-12-16T00:26:56.594Z,100.00
2022-12-16T00:32:00.136Z,100.00
2022-12-16T00:37:03.635Z,100.00
2022-12-16T00:42:08.436Z,100.00
2022-12-16T00:47:11.894Z,100.00
2022-12-16T00:52:15.340Z,100.00
2022-12-16T00:57:20.196Z,100.00
2022-12-16T01:02:23.732Z,100.00
2022-12-16T01:07:27.324Z,100.00
2022-12-16T01:12:32.102Z,100.00
2022-12-16T01:17:36.232Z,100.00
2022-12-16T01:22:39.960Z,100.00
2022-12-16T01:27:44.894Z,100.00
2022-12-16T01:32:48.304Z,100.00
2022-12-16T01:37:51.736Z,100.00
2022-12-16T01:42:56.505Z,100.00
2022-12-16T01:48:02.560Z,100.00
2022-12-16T01:53:06.629Z,100.00
2022-12-16T01:58:19.439Z,100.00
2022-12-16T02:03:23.668Z,100.00
2022-12-16T02:08:27.221Z,100.00
2022-12-16T02:13:43.305Z,100.00
2022-12-16T02:18:55.047Z,100.00
2022-12-16T02:24:38.031Z,100.00
2022-12-16T02:30:11.122Z,100.00
2022-12-16T02:35:25.883Z,100.00
2022-12-16T02:40:35.797Z,100.00
2022-12-16T02:45:41.424Z,100.00
2022-12-16T02:50:50.830Z,100.00
2022-12-16T02:55:59.486Z,100.00
2022-12-16T03:01:11.461Z,100.00
2022-12-16T03:06:20.278Z,100.00
2022-12-16T03:11:27.232Z,100.00
2022-12-16T03:16:34.672Z,100.00
2022-12-16T03:21:49.953Z,100.00
2022-12-16T03:27:03.533Z,100.00
2022-12-16T03:32:13.121Z,100.00
2022-12-16T03:37:20.605Z,100.00
2022-12-16T03:42:25.276Z,100.00
2022-12-16T03:47:29.940Z,100.00
2022-12-16T03:52:34.750Z,100.00
2022-12-16T03:57:38.202Z,100.00
2022-12-16T04:02:41.858Z,100.00
2022-12-16T04:07:46.893Z,100.00
2022-12-16T04:13:07.706Z,100.00
2022-12-16T04:18:34.015Z,100.00
2022-12-16T04:24:05.900Z,100.00
2022-12-16T04:29:09.350Z,100.00
2022-12-16T04:34:29.334Z,100.00
2022-12-16T04:39:51.614Z,100.00
2022-12-16T04:45:12.689Z,100.00
2022-12-16T04:50:33.617Z,100.00
2022-12-16T04:56:02.119Z,100.00
2022-12-16T05:01:25.510Z,100.00
2022-12-16T05:06:46.633Z,100.00
2022-12-16T05:12:08.904Z,100.00
2022-12-16T05:17:30.007Z,100.00
2022-12-16T05:22:51.009Z,100.00
2022-12-16T05:28:14.007Z,100.00
2022-12-16T06:10:40.367Z,100.00
2022-12-16T06:16:06.691Z,100.00
2022-12-16T06:21:29.445Z,100.00
2022-12-16T06:26:51.823Z,100.00
2022-12-16T06:32:21.215Z,100.00
2022-12-16T06:37:42.385Z,100.00
2022-12-16T06:43:04.779Z,100.00
2022-12-16T06:48:26.952Z,100.00
2022-12-16T06:53:47.847Z,100.00
2022-12-16T06:59:10.496Z,100.00
2022-12-16T07:04:31.571Z,100.00
2022-12-16T07:09:53.479Z,100.00
2022-12-16T07:15:15.787Z,100.00
2022-12-16T07:20:37.011Z,100.00
2022-12-16T07:25:58.228Z,100.00
2022-12-16T07:31:20.707Z,100.00
2022-12-16T07:36:41.893Z,100.00
2022-12-16T07:41:59.282Z,100.00
2022-12-16T07:47:21.600Z,100.00
2022-12-16T07:52:42.487Z,100.00
2022-12-16T07:58:08.594Z,100.00
2022-12-16T08:03:45.547Z,100.00
2022-12-16T08:09:06.842Z,100.00
2022-12-16T08:14:39.311Z,100.00
2022-12-16T08:20:01.726Z,100.00
2022-12-16T08:25:23.445Z,100.00
2022-12-16T08:30:43.730Z,100.00
2022-12-16T08:36:06.350Z,100.00
2022-12-16T08:41:27.497Z,100.00
2022-12-16T08:46:48.592Z,100.00
2022-12-16T08:52:10.715Z,100.00
2022-12-16T08:57:31.708Z,100.00
2022-12-16T09:02:52.953Z,100.00
2022-12-16T09:08:19.867Z,100.00
2022-12-16T09:13:41.025Z,100.00
2022-12-16T09:19:02.248Z,100.00
2022-12-16T09:24:25.457Z,100.00
2022-12-16T09:29:46.479Z,100.00
2022-12-16T09:35:13.235Z,100.00
2022-12-16T09:40:36.682Z,100.00
2022-12-16T09:46:06.968Z,100.00
2022-12-16T09:51:29.867Z,100.00
2022-12-16T09:56:55.131Z,100.00
2022-12-16T10:02:16.441Z,100.00
2022-12-16T10:07:39.491Z,100.00
2022-12-16T10:13:11.430Z,100.00
2022-12-16T10:18:43.629Z,100.00
2022-12-16T10:24:17.597Z,100.00
2022-12-16T10:29:46.267Z,100.00
2022-12-16T10:35:07.309Z,100.00
2022-12-16T10:40:34.822Z,100.00
2022-12-16T10:46:03.122Z,100.00
2022-12-16T10:51:33.473Z,100.00
2022-12-16T10:57:10.121Z,100.00
2022-12-16T11:02:39.394Z,100.00
2022-12-16T11:08:11.614Z,100.00
2022-12-16T11:13:37.444Z,100.00
2022-12-16T11:19:08.267Z,100.00
2022-12-16T11:24:33.376Z,99.37
2022-12-16T11:30:07.937Z,98.46
2022-12-16T11:35:34.694Z,97.79
2022-12-16T11:40:56.168Z,98.23
2022-12-16T11:46:20.427Z,98.70
2022-12-16T11:51:45.195Z,99.01
2022-12-16T11:57:07.666Z,99.62
2022-12-16T12:02:34.462Z,99.12
2022-12-16T12:08:03.797Z,98.66
2022-12-16T12:13:30.429Z,99.49
2022-12-16T12:18:58.473Z,100.00
2022-12-16T12:24:28.112Z,100.00
2022-12-16T12:30:16.071Z,100.00
2022-12-16T12:35:54.320Z,100.00
2022-12-16T12:41:29.858Z,100.00
2022-12-16T12:46:56.497Z,100.00
2022-12-16T12:52:32.928Z,99.93
2022-12-16T12:58:03.180Z,99.70
2022-12-16T13:03:33.075Z,99.91
2022-12-16T13:09:13.021Z,100.00
2022-12-16T13:15:10.657Z,100.00
2022-12-16T13:20:56.567Z,100.00
2022-12-16T13:26:23.704Z,100.00
2022-12-16T13:31:46.974Z,100.00
2022-12-16T13:37:24.882Z,100.00
2022-12-16T13:43:10.319Z,100.00
2022-12-16T13:49:04.358Z,100.00
2022-12-16T13:54:38.286Z,100.00
2022-12-16T14:00:00.399Z,100.00
2022-12-16T14:05:22.431Z,100.00
2022-12-16T14:10:48.268Z,100.00
2022-12-16T14:16:20.431Z,100.00
2022-12-16T14:21:50.112Z,100.00
2022-12-16T14:27:13.613Z,100.00
2022-12-16T14:32:40.162Z,100.00
2022-12-16T14:38:01.021Z,100.00
2022-12-16T14:43:31.730Z,100.00
2022-12-16T14:48:54.631Z,100.00
2022-12-16T14:54:34.550Z,100.00
2022-12-16T14:59:57.067Z,100.00
2022-12-16T15:05:21.756Z,100.00
2022-12-16T15:10:46.188Z,100.00
2022-12-16T15:16:09.070Z,100.00
2022-12-16T15:21:30.221Z,100.00
2022-12-16T15:26:53.640Z,100.00
2022-12-16T15:32:15.855Z,100.00
2022-12-16T15:37:43.240Z,100.00
2022-12-16T15:43:09.166Z,100.00
2022-12-16T15:48:37.147Z,100.00
2022-12-16T15:53:58.861Z,100.00
2022-12-16T15:59:32.953Z,100.00
2022-12-16T16:04:55.188Z,100.00
2022-12-16T16:10:33.979Z,100.00
2022-12-16T16:15:55.219Z,100.00
2022-12-16T16:21:17.662Z,100.00
2022-12-16T16:26:40.584Z,100.00
2022-12-16T16:32:04.313Z,100.00
2022-12-16T16:37:35.357Z,100.00
2022-12-16T16:42:59.503Z,100.00
2022-12-16T16:48:32.068Z,100.00
2022-12-16T16:53:55.375Z,100.00
2022-12-16T16:59:16.507Z,100.00
2022-12-16T17:04:37.501Z,100.00
2022-12-16T17:09:59.975Z,100.00
2022-12-16T17:15:21.292Z,100.00
2022-12-16T17:20:42.832Z,100.00
2022-12-16T17:26:05.344Z,100.00
2022-12-16T17:31:27.081Z,100.00
2022-12-16T17:36:49.112Z,100.00
2022-12-16T17:42:11.266Z,100.00
2022-12-16T17:47:32.314Z,100.00
2022-12-16T17:52:53.439Z,100.00
2022-12-16T17:58:15.622Z,100.00
2022-12-16T18:03:37.180Z,100.00
2022-12-16T18:08:58.488Z,100.00
2022-12-16T18:14:20.643Z,100.00
2022-12-16T18:19:41.567Z,100.00
2022-12-16T18:25:02.615Z,100.00
2022-12-16T18:30:26.441Z,100.00
2022-12-16T18:35:47.402Z,100.00
2022-12-16T18:41:08.343Z,100.00
2022-12-16T18:46:30.687Z,100.00
2022-12-16T18:51:51.854Z,100.00
2022-12-16T18:57:13.059Z,100.00
2022-12-16T19:02:35.567Z,100.00
2022-12-16T19:07:56.622Z,100.00
2022-12-16T19:13:18.242Z,100.00
2022-12-16T19:18:40.674Z,100.00
2022-12-16T19:24:01.840Z,100.00
2022-12-16T19:29:22.821Z,100.00
2022-12-16T19:34:45.197Z,100.00
2022-12-16T19:40:06.204Z,100.00
2022-12-16T19:45:27.991Z,100.00
2022-12-16T19:50:50.405Z,100.00
2022-12-16T19:56:13.959Z,100.00
2022-12-16T20:01:38.012Z,100.00
2022-12-16T20:07:00.717Z,100.00
2022-12-16T20:12:21.544Z,100.00
2022-12-16T20:17:42.548Z,100.00
2022-12-16T20:23:04.568Z,100.00
2022-12-16T20:28:25.688Z,100.00
2022-12-16T20:33:47.426Z,100.00
2022-12-16T20:39:18.058Z,100.00
2022-12-16T20:44:39.058Z,100.00
2022-12-16T20:50:00.303Z,100.00
2022-12-16T20:55:22.886Z,100.00
2022-12-16T21:00:44.072Z,100.00
2022-12-16T21:06:13.439Z,100.00
2022-12-16T21:11:35.936Z,100.00
2022-12-16T21:16:56.958Z,100.00
2022-12-16T21:22:18.144Z,100.00
2022-12-16T21:27:40.638Z,100.00
2022-12-16T21:33:01.709Z,100.00
2022-12-16T21:38:27.392Z,100.00
2022-12-16T21:43:46.137Z,100.00
2022-12-16T21:49:06.959Z,100.00
2022-12-16T21:54:27.975Z,100.00
2022-12-16T21:59:51.435Z,100.00
2022-12-16T22:05:24.627Z,100.00
2022-12-16T22:10:45.618Z,100.00
2022-12-16T22:16:14.836Z,100.00
2022-12-16T22:21:39.507Z,100.00
2022-12-16T22:27:00.483Z,100.00
2022-12-16T22:32:22.765Z,100.00
2022-12-16T22:37:43.773Z,100.00
2022-12-16T22:43:06.375Z,100.00
2022-12-16T22:48:29.620Z,100.00
2022-12-16T22:53:50.606Z,100.00
2022-12-16T22:59:12.714Z,100.00
2022-12-16T23:04:34.973Z,100.00
2022-12-16T23:09:55.865Z,100.00
2022-12-16T23:15:17.144Z,100.00
2022-12-16T23:20:39.468Z,100.00
2022-12-16T23:26:00.526Z,100.00
2022-12-16T23:31:21.368Z,100.00
2022-12-16T23:36:44.030Z,100.00
2022-12-16T23:42:03.977Z,100.00
2022-12-16T23:47:25.133Z,100.00
2022-12-16T23:52:47.483Z,100.00
2022-12-16T23:58:16.568Z,100.00
